SBI4404 UHWW-RKSI
Flight info
| Callsign | SBI4404 |
|---|---|
| Flight time | 1h 31m |
| Altitude | 34000 |
| Route | VATIS B355 KICHA R452 HAMUN W4 GUMSA CONAR KARBU |
| Aircraft | A321/M-SDE3FGHIRWY/LB1 |
Departure
| Time | 2026-04-25 07:05 |
|---|---|
| Airport | Vladivostok International Airport (UHWW) |
Arrival
| Time | 2026-04-25 08:36 |
|---|---|
| Airport | Incheon International Airport (RKSI) |
| Time | Latitude | Longitude | Altitude | Speed | Heading |
|---|---|---|---|---|---|
| 2026-04-25 06:40 | 43.39908 | 132.16484 | 47 ft | 0 kts | 151° |
| 2026-04-25 07:01 | 43.39905 | 132.16486 | 47 ft | 3 kts | 151° |
| 2026-04-25 07:01 | 43.39875 | 132.16510 | 47 ft | 5 kts | 139° |
| 2026-04-25 07:01 | 43.39875 | 132.16591 | 46 ft | 12 kts | 63° |
| 2026-04-25 07:01 | 43.39926 | 132.16715 | 43 ft | 19 kts | 60° |
| 2026-04-25 07:02 | 43.39993 | 132.16881 | 41 ft | 20 kts | 61° |
| 2026-04-25 07:02 | 43.40051 | 132.17024 | 37 ft | 13 kts | 61° |
| 2026-04-25 07:02 | 43.40122 | 132.17081 | 36 ft | 14 kts | 341° |
| 2026-04-25 07:02 | 43.40219 | 132.17011 | 34 ft | 18 kts | 330° |
| 2026-04-25 07:03 | 43.40321 | 132.16934 | 33 ft | 2 kts | 331° |
| 2026-04-25 07:03 | 43.40322 | 132.16933 | 33 ft | 1 kts | 331° |
| 2026-04-25 07:03 | 43.40369 | 132.16898 | 33 ft | 13 kts | 331° |
| 2026-04-25 07:04 | 43.40432 | 132.16812 | 33 ft | 13 kts | 266° |
| 2026-04-25 07:04 | 43.40393 | 132.16698 | 34 ft | 14 kts | 241° |
| 2026-04-25 07:04 | 43.40241 | 132.16324 | 40 ft | 83 kts | 239° |
| 2026-04-25 07:04 | 43.39852 | 132.15356 | 55 ft | 148 kts | 237° |
| 2026-04-25 07:05 | 43.39303 | 132.14043 | 507 ft | 163 kts | 234° |
| 2026-04-25 07:05 | 43.38743 | 132.12711 | 1360 ft | 160 kts | 234° |
| 2026-04-25 07:05 | 43.38242 | 132.11438 | 2145 ft | 151 kts | 234° |
| 2026-04-25 07:05 | 43.37722 | 132.10136 | 2442 ft | 163 kts | 234° |
| 2026-04-25 07:06 | 43.37150 | 132.08727 | 2723 ft | 176 kts | 235° |
| 2026-04-25 07:06 | 43.36523 | 132.07182 | 2985 ft | 192 kts | 235° |
| 2026-04-25 07:06 | 43.35847 | 132.05521 | 3236 ft | 211 kts | 236° |
| 2026-04-25 07:06 | 43.35117 | 132.03720 | 3803 ft | 217 kts | 237° |
| 2026-04-25 07:07 | 43.34262 | 132.02063 | 4536 ft | 213 kts | 218° |
| 2026-04-25 07:07 | 43.32960 | 132.01215 | 5222 ft | 215 kts | 192° |
| 2026-04-25 07:07 | 43.31456 | 132.01346 | 5823 ft | 227 kts | 166° |
| 2026-04-25 07:07 | 43.30087 | 132.02537 | 6408 ft | 242 kts | 143° |
| 2026-04-25 07:08 | 43.28835 | 132.04115 | 6953 ft | 250 kts | 143° |
| 2026-04-25 07:08 | 43.27549 | 132.05730 | 7501 ft | 256 kts | 144° |
| 2026-04-25 07:08 | 43.26225 | 132.07385 | 8083 ft | 261 kts | 144° |
| 2026-04-25 07:08 | 43.24881 | 132.09064 | 8675 ft | 265 kts | 144° |
| 2026-04-25 07:09 | 43.23495 | 132.10792 | 9251 ft | 270 kts | 143° |
| 2026-04-25 07:09 | 43.22099 | 132.12534 | 9802 ft | 276 kts | 143° |
| 2026-04-25 07:09 | 43.20687 | 132.14296 | 10346 ft | 280 kts | 143° |
| 2026-04-25 07:09 | 43.19216 | 132.16103 | 10910 ft | 282 kts | 148° |
| 2026-04-25 07:10 | 43.17532 | 132.17227 | 11460 ft | 268 kts | 177° |
| 2026-04-25 07:10 | 43.15698 | 132.17279 | 11857 ft | 268 kts | 191° |
| 2026-04-25 07:10 | 43.13791 | 132.17067 | 12200 ft | 281 kts | 191° |
| 2026-04-25 07:10 | 43.11801 | 132.16852 | 12484 ft | 296 kts | 191° |
| 2026-04-25 07:11 | 43.09690 | 132.16644 | 12757 ft | 311 kts | 190° |
| 2026-04-25 07:11 | 43.07478 | 132.16450 | 13035 ft | 326 kts | 190° |
| 2026-04-25 07:11 | 43.05156 | 132.16255 | 13282 ft | 340 kts | 189° |
| 2026-04-25 07:11 | 43.02771 | 132.16061 | 13531 ft | 353 kts | 189° |
| 2026-04-25 07:12 | 43.00272 | 132.15861 | 13852 ft | 364 kts | 188° |
| 2026-04-25 07:12 | 42.95155 | 132.15465 | 14899 ft | 371 kts | 188° |
| 2026-04-25 07:12 | 42.92584 | 132.15265 | 15409 ft | 374 kts | 189° |
| 2026-04-25 07:13 | 42.89969 | 132.15057 | 15896 ft | 378 kts | 189° |
| 2026-04-25 07:13 | 42.87392 | 132.14575 | 16346 ft | 374 kts | 199° |
| 2026-04-25 07:13 | 42.84993 | 132.13371 | 16845 ft | 368 kts | 212° |
| 2026-04-25 07:13 | 42.82819 | 132.11534 | 17327 ft | 366 kts | 220° |
| 2026-04-25 07:14 | 42.80755 | 132.09517 | 17779 ft | 368 kts | 221° |
| 2026-04-25 07:14 | 42.78685 | 132.07466 | 18244 ft | 370 kts | 221° |
| 2026-04-25 07:14 | 42.76620 | 132.05420 | 18681 ft | 373 kts | 221° |
| 2026-04-25 07:14 | 42.74500 | 132.03325 | 19128 ft | 375 kts | 221° |
| 2026-04-25 07:15 | 42.72385 | 132.01244 | 19566 ft | 377 kts | 221° |
| 2026-04-25 07:15 | 42.70267 | 131.99164 | 19991 ft | 379 kts | 221° |
| 2026-04-25 07:15 | 42.68150 | 131.97089 | 20387 ft | 381 kts | 221° |
| 2026-04-25 07:15 | 42.65994 | 131.94977 | 20784 ft | 384 kts | 221° |
| 2026-04-25 07:16 | 42.63803 | 131.92831 | 21191 ft | 386 kts | 221° |
| 2026-04-25 07:16 | 42.61649 | 131.90727 | 21555 ft | 388 kts | 221° |
| 2026-04-25 07:16 | 42.59437 | 131.88567 | 21924 ft | 391 kts | 221° |
| 2026-04-25 07:16 | 42.57232 | 131.86415 | 22288 ft | 393 kts | 221° |
| 2026-04-25 07:17 | 42.55024 | 131.84262 | 22656 ft | 395 kts | 221° |
| 2026-04-25 07:17 | 42.52779 | 131.82075 | 23000 ft | 397 kts | 221° |
| 2026-04-25 07:17 | 42.50525 | 131.79881 | 23365 ft | 399 kts | 221° |
| 2026-04-25 07:17 | 42.48281 | 131.77699 | 23703 ft | 401 kts | 221° |
| 2026-04-25 07:18 | 42.46006 | 131.75490 | 24029 ft | 404 kts | 221° |
| 2026-04-25 07:18 | 42.43727 | 131.73274 | 24344 ft | 406 kts | 221° |
| 2026-04-25 07:18 | 42.41413 | 131.71030 | 24646 ft | 409 kts | 221° |
| 2026-04-25 07:18 | 42.39118 | 131.68806 | 24950 ft | 412 kts | 221° |
| 2026-04-25 07:19 | 42.36780 | 131.66544 | 25257 ft | 414 kts | 221° |
| 2026-04-25 07:19 | 42.34430 | 131.64276 | 25569 ft | 416 kts | 221° |
| 2026-04-25 07:19 | 42.32071 | 131.62001 | 25860 ft | 419 kts | 221° |
| 2026-04-25 07:19 | 42.29707 | 131.59720 | 26155 ft | 421 kts | 221° |
| 2026-04-25 07:20 | 42.27317 | 131.57416 | 26426 ft | 424 kts | 221° |
| 2026-04-25 07:20 | 42.24929 | 131.55119 | 26710 ft | 426 kts | 221° |
| 2026-04-25 07:20 | 42.22488 | 131.52774 | 26999 ft | 428 kts | 220° |
| 2026-04-25 07:20 | 42.20088 | 131.50478 | 27279 ft | 429 kts | 220° |
| 2026-04-25 07:21 | 42.17639 | 131.48138 | 27503 ft | 432 kts | 220° |
| 2026-04-25 07:21 | 42.15184 | 131.45795 | 27811 ft | 433 kts | 220° |
| 2026-04-25 07:21 | 42.12750 | 131.43472 | 28205 ft | 431 kts | 220° |
| 2026-04-25 07:21 | 42.10281 | 131.41115 | 28555 ft | 431 kts | 220° |
| 2026-04-25 07:22 | 42.07862 | 131.38805 | 28895 ft | 431 kts | 220° |
| 2026-04-25 07:22 | 42.05403 | 131.36459 | 29256 ft | 430 kts | 220° |
| 2026-04-25 07:22 | 42.02975 | 131.34143 | 29616 ft | 429 kts | 220° |
| 2026-04-25 07:22 | 42.00568 | 131.31841 | 29990 ft | 428 kts | 220° |
| 2026-04-25 07:23 | 41.98150 | 131.29533 | 30330 ft | 428 kts | 220° |
| 2026-04-25 07:23 | 41.95712 | 131.27202 | 30653 ft | 428 kts | 220° |
| 2026-04-25 07:23 | 41.93383 | 131.24797 | 30958 ft | 426 kts | 224° |
| 2026-04-25 07:23 | 41.91121 | 131.22195 | 31266 ft | 424 kts | 226° |
| 2026-04-25 07:24 | 41.89024 | 131.19510 | 31584 ft | 421 kts | 229° |
| 2026-04-25 07:24 | 41.87020 | 131.16673 | 31918 ft | 419 kts | 232° |
| 2026-04-25 07:24 | 41.85142 | 131.13718 | 32228 ft | 417 kts | 235° |
| 2026-04-25 07:24 | 41.83348 | 131.10658 | 32491 ft | 416 kts | 236° |
| 2026-04-25 07:25 | 41.81577 | 131.07625 | 32713 ft | 417 kts | 236° |
| 2026-04-25 07:25 | 41.79787 | 131.04556 | 32911 ft | 419 kts | 236° |
| 2026-04-25 07:25 | 41.77988 | 131.01471 | 33128 ft | 420 kts | 236° |
| 2026-04-25 07:25 | 41.76185 | 130.98381 | 33331 ft | 421 kts | 236° |
| 2026-04-25 07:26 | 41.74389 | 130.95306 | 33514 ft | 422 kts | 236° |
| 2026-04-25 07:26 | 41.72592 | 130.92233 | 33695 ft | 423 kts | 236° |
| 2026-04-25 07:26 | 41.70794 | 130.89162 | 33867 ft | 424 kts | 236° |
| 2026-04-25 07:26 | 41.68958 | 130.86026 | 33979 ft | 425 kts | 236° |
| 2026-04-25 07:27 | 41.65328 | 130.79837 | 33981 ft | 425 kts | 236° |
| 2026-04-25 07:27 | 41.61690 | 130.73648 | 33984 ft | 425 kts | 236° |
| 2026-04-25 07:28 | 41.58038 | 130.67448 | 33980 ft | 425 kts | 235° |
| 2026-04-25 07:28 | 41.54381 | 130.61249 | 33974 ft | 425 kts | 235° |
| 2026-04-25 07:29 | 41.50726 | 130.55064 | 33977 ft | 425 kts | 235° |
| 2026-04-25 07:29 | 41.47060 | 130.48879 | 33970 ft | 427 kts | 235° |
| 2026-04-25 07:30 | 41.43379 | 130.42711 | 33975 ft | 426 kts | 235° |
| 2026-04-25 07:30 | 41.39701 | 130.36552 | 33964 ft | 426 kts | 234° |
| 2026-04-25 07:31 | 41.36032 | 130.30396 | 33970 ft | 427 kts | 234° |
| 2026-04-25 07:31 | 41.32334 | 130.24193 | 33963 ft | 428 kts | 234° |
| 2026-04-25 07:32 | 41.28647 | 130.18031 | 33965 ft | 428 kts | 234° |
| 2026-04-25 07:32 | 41.24946 | 130.11867 | 33959 ft | 427 kts | 234° |
| 2026-04-25 07:33 | 41.21235 | 130.05699 | 33955 ft | 427 kts | 234° |
| 2026-04-25 07:33 | 41.17542 | 129.99574 | 33952 ft | 428 kts | 233° |
| 2026-04-25 07:34 | 41.13821 | 129.93420 | 33955 ft | 428 kts | 234° |
| 2026-04-25 07:34 | 41.10113 | 129.87294 | 33950 ft | 428 kts | 234° |
| 2026-04-25 07:35 | 41.06369 | 129.81120 | 33950 ft | 430 kts | 234° |
| 2026-04-25 07:35 | 41.02631 | 129.74970 | 33942 ft | 430 kts | 233° |
| 2026-04-25 07:36 | 40.98896 | 129.68840 | 33943 ft | 430 kts | 233° |
| 2026-04-25 07:36 | 40.95147 | 129.62695 | 33954 ft | 430 kts | 233° |
| 2026-04-25 07:37 | 40.91378 | 129.56532 | 33963 ft | 430 kts | 233° |
| 2026-04-25 07:37 | 40.87625 | 129.50429 | 33964 ft | 431 kts | 233° |
| 2026-04-25 07:38 | 40.83848 | 129.44313 | 33963 ft | 431 kts | 233° |
| 2026-04-25 07:38 | 40.80061 | 129.38162 | 33957 ft | 431 kts | 233° |
| 2026-04-25 07:39 | 40.76305 | 129.32050 | 33953 ft | 432 kts | 233° |
| 2026-04-25 07:39 | 40.72534 | 129.25919 | 33948 ft | 432 kts | 233° |
| 2026-04-25 07:40 | 40.68839 | 129.19679 | 33950 ft | 430 kts | 236° |
| 2026-04-25 07:40 | 40.65640 | 129.13058 | 33967 ft | 430 kts | 241° |
| 2026-04-25 07:41 | 40.62630 | 129.06302 | 33972 ft | 431 kts | 241° |
| 2026-04-25 07:41 | 40.59603 | 128.99509 | 33973 ft | 431 kts | 241° |
| 2026-04-25 07:42 | 40.56570 | 128.92719 | 33974 ft | 432 kts | 241° |
| 2026-04-25 07:42 | 40.53531 | 128.85928 | 33983 ft | 431 kts | 241° |
| 2026-04-25 07:43 | 40.50505 | 128.79182 | 33999 ft | 431 kts | 241° |
| 2026-04-25 07:43 | 40.47468 | 128.72423 | 34006 ft | 431 kts | 241° |
| 2026-04-25 07:44 | 40.44417 | 128.65651 | 34008 ft | 432 kts | 241° |
| 2026-04-25 07:44 | 40.41344 | 128.58847 | 34000 ft | 432 kts | 241° |
| 2026-04-25 07:45 | 40.38294 | 128.52103 | 33996 ft | 432 kts | 241° |
| 2026-04-25 07:45 | 40.35223 | 128.45329 | 33995 ft | 433 kts | 241° |
| 2026-04-25 07:46 | 40.32151 | 128.38571 | 33988 ft | 433 kts | 241° |
| 2026-04-25 07:46 | 40.29073 | 128.31804 | 33991 ft | 435 kts | 240° |
| 2026-04-25 07:47 | 40.25996 | 128.25037 | 33984 ft | 435 kts | 240° |
| 2026-04-25 07:47 | 40.22896 | 128.18248 | 34003 ft | 435 kts | 240° |
| 2026-04-25 07:48 | 40.19773 | 128.11433 | 34011 ft | 435 kts | 240° |
| 2026-04-25 07:48 | 40.16671 | 128.04681 | 34013 ft | 435 kts | 240° |
| 2026-04-25 07:49 | 40.13566 | 127.97937 | 34018 ft | 435 kts | 240° |
| 2026-04-25 07:49 | 40.10443 | 127.91168 | 34024 ft | 435 kts | 240° |
| 2026-04-25 07:50 | 40.07325 | 127.84421 | 34029 ft | 437 kts | 240° |
| 2026-04-25 07:50 | 40.04186 | 127.77647 | 34046 ft | 437 kts | 240° |
| 2026-04-25 07:51 | 40.01036 | 127.70863 | 34052 ft | 438 kts | 240° |
| 2026-04-25 07:51 | 39.97882 | 127.64088 | 34041 ft | 439 kts | 240° |
| 2026-04-25 07:52 | 39.94224 | 127.57747 | 34023 ft | 440 kts | 227° |
| 2026-04-25 07:52 | 39.89384 | 127.52895 | 34021 ft | 443 kts | 212° |
| 2026-04-25 07:53 | 39.83652 | 127.49895 | 34013 ft | 446 kts | 196° |
| 2026-04-25 07:53 | 39.77549 | 127.48338 | 34012 ft | 446 kts | 193° |
| 2026-04-25 07:54 | 39.71463 | 127.46886 | 34013 ft | 446 kts | 193° |
| 2026-04-25 07:54 | 39.65375 | 127.45347 | 34014 ft | 445 kts | 195° |
| 2026-04-25 07:55 | 39.59491 | 127.43005 | 34020 ft | 442 kts | 204° |
| 2026-04-25 07:55 | 39.54017 | 127.39493 | 34022 ft | 439 kts | 213° |
| 2026-04-25 07:56 | 39.49086 | 127.34941 | 34022 ft | 436 kts | 221° |
| 2026-04-25 07:56 | 39.44442 | 127.29878 | 34022 ft | 436 kts | 221° |
| 2026-04-25 07:57 | 39.39316 | 127.25716 | 34021 ft | 440 kts | 206° |
| 2026-04-25 07:57 | 39.33429 | 127.23570 | 34028 ft | 443 kts | 190° |
| 2026-04-25 07:58 | 39.27264 | 127.23617 | 34033 ft | 448 kts | 174° |
| 2026-04-25 07:58 | 39.21140 | 127.25108 | 34038 ft | 448 kts | 171° |
| 2026-04-25 07:59 | 39.15031 | 127.26684 | 34051 ft | 447 kts | 171° |
| 2026-04-25 07:59 | 39.08911 | 127.28239 | 34067 ft | 446 kts | 172° |
| 2026-04-25 08:00 | 39.02853 | 127.29763 | 34080 ft | 445 kts | 172° |
| 2026-04-25 08:00 | 38.96801 | 127.31278 | 34089 ft | 444 kts | 172° |
| 2026-04-25 08:01 | 38.90710 | 127.32797 | 34089 ft | 444 kts | 172° |
| 2026-04-25 08:01 | 38.84681 | 127.34296 | 34092 ft | 444 kts | 172° |
| 2026-04-25 08:02 | 38.78612 | 127.35805 | 34091 ft | 443 kts | 172° |
| 2026-04-25 08:02 | 38.72566 | 127.37305 | 34094 ft | 443 kts | 172° |
| 2026-04-25 08:03 | 38.66499 | 127.38809 | 34090 ft | 443 kts | 172° |
| 2026-04-25 08:03 | 38.60479 | 127.40301 | 34089 ft | 442 kts | 171° |
| 2026-04-25 08:04 | 38.54399 | 127.41803 | 34089 ft | 442 kts | 171° |
| 2026-04-25 08:04 | 38.48385 | 127.43288 | 34086 ft | 442 kts | 171° |
| 2026-04-25 08:05 | 38.42371 | 127.44769 | 34085 ft | 442 kts | 171° |
| 2026-04-25 08:05 | 38.36306 | 127.46261 | 34087 ft | 442 kts | 171° |
| 2026-04-25 08:06 | 38.30291 | 127.47739 | 34087 ft | 442 kts | 171° |
| 2026-04-25 08:06 | 38.24225 | 127.49226 | 34084 ft | 441 kts | 171° |
| 2026-04-25 08:07 | 38.18214 | 127.50697 | 34096 ft | 441 kts | 171° |
| 2026-04-25 08:07 | 38.12225 | 127.52159 | 34105 ft | 441 kts | 171° |
| 2026-04-25 08:08 | 38.06195 | 127.53629 | 34119 ft | 440 kts | 171° |
| 2026-04-25 08:08 | 38.00176 | 127.55096 | 34126 ft | 440 kts | 171° |
| 2026-04-25 08:09 | 37.94180 | 127.56555 | 34116 ft | 441 kts | 171° |
| 2026-04-25 08:09 | 37.88143 | 127.58020 | 34109 ft | 441 kts | 171° |
| 2026-04-25 08:10 | 37.82090 | 127.59481 | 34089 ft | 440 kts | 171° |
| 2026-04-25 08:10 | 37.76108 | 127.60928 | 33888 ft | 434 kts | 172° |
| 2026-04-25 08:11 | 37.73152 | 127.61641 | 33301 ft | 433 kts | 171° |
| 2026-04-25 08:11 | 37.70219 | 127.62347 | 32643 ft | 432 kts | 171° |
| 2026-04-25 08:11 | 37.67295 | 127.63050 | 32008 ft | 431 kts | 171° |
| 2026-04-25 08:11 | 37.64359 | 127.63758 | 31302 ft | 431 kts | 171° |
| 2026-04-25 08:12 | 37.61379 | 127.64226 | 30472 ft | 431 kts | 182° |
| 2026-04-25 08:12 | 37.58421 | 127.63630 | 29544 ft | 431 kts | 198° |
| 2026-04-25 08:12 | 37.55746 | 127.62009 | 28639 ft | 431 kts | 214° |
| 2026-04-25 08:12 | 37.53546 | 127.59539 | 27726 ft | 432 kts | 229° |
| 2026-04-25 08:13 | 37.51952 | 127.56352 | 26805 ft | 434 kts | 245° |
| 2026-04-25 08:13 | 37.51099 | 127.52719 | 26157 ft | 429 kts | 257° |
| 2026-04-25 08:13 | 37.50522 | 127.49106 | 25583 ft | 423 kts | 257° |
| 2026-04-25 08:14 | 37.49315 | 127.41934 | 24246 ft | 415 kts | 252° |
| 2026-04-25 08:14 | 37.48103 | 127.38664 | 23541 ft | 410 kts | 236° |
| 2026-04-25 08:14 | 37.46321 | 127.35960 | 22920 ft | 404 kts | 223° |
| 2026-04-25 08:14 | 37.44109 | 127.33785 | 22289 ft | 400 kts | 216° |
| 2026-04-25 08:15 | 37.41837 | 127.31770 | 21623 ft | 398 kts | 215° |
| 2026-04-25 08:15 | 37.39607 | 127.29806 | 20974 ft | 395 kts | 215° |
| 2026-04-25 08:15 | 37.37348 | 127.27812 | 20408 ft | 391 kts | 215° |
| 2026-04-25 08:15 | 37.35173 | 127.25887 | 20198 ft | 378 kts | 215° |
| 2026-04-25 08:16 | 37.33067 | 127.24022 | 19977 ft | 366 kts | 215° |
| 2026-04-25 08:16 | 37.30998 | 127.22189 | 19773 ft | 355 kts | 215° |
| 2026-04-25 08:16 | 37.29044 | 127.20407 | 19545 ft | 344 kts | 220° |
| 2026-04-25 08:16 | 37.27598 | 127.18079 | 19295 ft | 335 kts | 245° |
| 2026-04-25 08:17 | 37.27050 | 127.15302 | 19107 ft | 326 kts | 265° |
| 2026-04-25 08:17 | 37.27055 | 127.12486 | 18803 ft | 322 kts | 269° |
| 2026-04-25 08:17 | 37.27088 | 127.09698 | 18342 ft | 320 kts | 269° |
| 2026-04-25 08:17 | 37.27110 | 127.06911 | 17863 ft | 319 kts | 269° |
| 2026-04-25 08:18 | 37.27123 | 127.04140 | 17436 ft | 318 kts | 269° |
| 2026-04-25 08:18 | 37.27128 | 127.01369 | 17059 ft | 317 kts | 269° |
| 2026-04-25 08:18 | 37.27130 | 126.98609 | 16624 ft | 316 kts | 269° |
| 2026-04-25 08:18 | 37.27130 | 126.95891 | 16231 ft | 315 kts | 269° |
| 2026-04-25 08:19 | 37.27133 | 126.93147 | 15824 ft | 314 kts | 270° |
| 2026-04-25 08:19 | 37.27546 | 126.90479 | 15377 ft | 315 kts | 296° |
| 2026-04-25 08:19 | 37.28873 | 126.88335 | 14998 ft | 312 kts | 315° |
| 2026-04-25 08:19 | 37.30471 | 126.86485 | 14568 ft | 310 kts | 317° |
| 2026-04-25 08:20 | 37.32030 | 126.84702 | 14380 ft | 302 kts | 317° |
| 2026-04-25 08:20 | 37.33540 | 126.82916 | 14224 ft | 293 kts | 316° |
| 2026-04-25 08:20 | 37.34968 | 126.81146 | 14071 ft | 284 kts | 314° |
| 2026-04-25 08:20 | 37.36306 | 126.79396 | 13923 ft | 275 kts | 313° |
| 2026-04-25 08:21 | 37.37494 | 126.77566 | 13711 ft | 266 kts | 295° |
| 2026-04-25 08:21 | 37.37848 | 126.75355 | 13502 ft | 256 kts | 263° |
| 2026-04-25 08:21 | 37.37298 | 126.73262 | 13212 ft | 252 kts | 236° |
| 2026-04-25 08:21 | 37.36211 | 126.71549 | 12796 ft | 253 kts | 218° |
| 2026-04-25 08:22 | 37.34665 | 126.70583 | 12398 ft | 251 kts | 189° |
| 2026-04-25 08:22 | 37.32963 | 126.70661 | 12046 ft | 247 kts | 161° |
| 2026-04-25 08:22 | 37.31455 | 126.71693 | 11644 ft | 245 kts | 143° |
| 2026-04-25 08:22 | 37.30097 | 126.72944 | 11278 ft | 246 kts | 143° |
| 2026-04-25 08:23 | 37.28716 | 126.74208 | 10937 ft | 244 kts | 143° |
| 2026-04-25 08:23 | 37.27343 | 126.75444 | 10596 ft | 241 kts | 144° |
| 2026-04-25 08:23 | 37.25973 | 126.76663 | 10217 ft | 239 kts | 144° |
| 2026-04-25 08:23 | 37.24635 | 126.77846 | 9878 ft | 237 kts | 144° |
| 2026-04-25 08:24 | 37.23284 | 126.79037 | 9562 ft | 236 kts | 144° |
| 2026-04-25 08:24 | 37.21945 | 126.80217 | 9194 ft | 236 kts | 144° |
| 2026-04-25 08:24 | 37.20601 | 126.81398 | 8940 ft | 234 kts | 144° |
| 2026-04-25 08:24 | 37.19267 | 126.82570 | 8569 ft | 234 kts | 144° |
| 2026-04-25 08:25 | 37.17932 | 126.83742 | 8207 ft | 234 kts | 144° |
| 2026-04-25 08:25 | 37.16608 | 126.84904 | 7835 ft | 233 kts | 145° |
| 2026-04-25 08:25 | 37.15275 | 126.86068 | 7471 ft | 232 kts | 147° |
| 2026-04-25 08:25 | 37.13788 | 126.86774 | 7109 ft | 231 kts | 178° |
| 2026-04-25 08:26 | 37.12267 | 126.86379 | 6966 ft | 228 kts | 208° |
| 2026-04-25 08:26 | 37.11064 | 126.85066 | 6969 ft | 230 kts | 234° |
| 2026-04-25 08:26 | 37.10155 | 126.83405 | 6976 ft | 233 kts | 236° |
| 2026-04-25 08:26 | 37.09331 | 126.81683 | 7028 ft | 233 kts | 250° |
| 2026-04-25 08:27 | 37.09227 | 126.79672 | 6992 ft | 232 kts | 284° |
| 2026-04-25 08:27 | 37.09986 | 126.77918 | 6935 ft | 233 kts | 315° |
| 2026-04-25 08:27 | 37.11289 | 126.76698 | 6948 ft | 236 kts | 326° |
| 2026-04-25 08:27 | 37.12664 | 126.75555 | 7002 ft | 238 kts | 326° |
| 2026-04-25 08:28 | 37.14031 | 126.74396 | 6986 ft | 238 kts | 325° |
| 2026-04-25 08:28 | 37.15400 | 126.73200 | 6988 ft | 237 kts | 321° |
| 2026-04-25 08:28 | 37.16542 | 126.71730 | 6972 ft | 236 kts | 304° |
| 2026-04-25 08:28 | 37.17413 | 126.70016 | 6827 ft | 232 kts | 300° |
| 2026-04-25 08:29 | 37.18222 | 126.68270 | 6459 ft | 233 kts | 299° |
| 2026-04-25 08:29 | 37.19107 | 126.66596 | 6113 ft | 234 kts | 314° |
| 2026-04-25 08:29 | 37.20371 | 126.65326 | 5842 ft | 230 kts | 322° |
| 2026-04-25 08:29 | 37.21623 | 126.64098 | 5498 ft | 231 kts | 321° |
| 2026-04-25 08:30 | 37.22880 | 126.62847 | 5171 ft | 228 kts | 321° |
| 2026-04-25 08:30 | 37.24140 | 126.61636 | 4745 ft | 226 kts | 322° |
| 2026-04-25 08:30 | 37.25397 | 126.60468 | 4405 ft | 225 kts | 322° |
| 2026-04-25 08:30 | 37.26653 | 126.59329 | 4099 ft | 224 kts | 323° |
| 2026-04-25 08:31 | 37.27914 | 126.58200 | 3801 ft | 219 kts | 323° |
| 2026-04-25 08:31 | 37.29149 | 126.57104 | 3601 ft | 208 kts | 323° |
| 2026-04-25 08:31 | 37.30284 | 126.56099 | 3332 ft | 196 kts | 323° |
| 2026-04-25 08:31 | 37.31362 | 126.55144 | 3041 ft | 185 kts | 322° |
| 2026-04-25 08:32 | 37.32388 | 126.54234 | 2776 ft | 174 kts | 322° |
| 2026-04-25 08:32 | 37.33334 | 126.53395 | 2555 ft | 160 kts | 322° |
| 2026-04-25 08:32 | 37.34204 | 126.52623 | 2323 ft | 146 kts | 322° |
| 2026-04-25 08:32 | 37.35023 | 126.51894 | 2141 ft | 144 kts | 322° |
| 2026-04-25 08:33 | 37.35836 | 126.51170 | 1967 ft | 143 kts | 321° |
| 2026-04-25 08:33 | 37.36644 | 126.50449 | 1799 ft | 142 kts | 322° |
| 2026-04-25 08:33 | 37.37441 | 126.49740 | 1622 ft | 141 kts | 322° |
| 2026-04-25 08:33 | 37.38245 | 126.49023 | 1438 ft | 141 kts | 322° |
| 2026-04-25 08:34 | 37.39051 | 126.48305 | 1255 ft | 140 kts | 322° |
| 2026-04-25 08:34 | 37.39842 | 126.47603 | 1068 ft | 140 kts | 322° |
| 2026-04-25 08:34 | 37.40640 | 126.46892 | 876 ft | 139 kts | 322° |
| 2026-04-25 08:34 | 37.41424 | 126.46185 | 688 ft | 139 kts | 322° |
| 2026-04-25 08:35 | 37.42215 | 126.45483 | 500 ft | 139 kts | 322° |
| 2026-04-25 08:35 | 37.43012 | 126.44788 | 326 ft | 138 kts | 323° |
| 2026-04-25 08:35 | 37.43795 | 126.44090 | 144 ft | 137 kts | 321° |
| 2026-04-25 08:35 | 37.44556 | 126.43405 | 30 ft | 125 kts | 323° |
| 2026-04-25 08:36 | 37.45141 | 126.42882 | 29 ft | 78 kts | 324° |
| 2026-04-25 08:36 | 37.45446 | 126.42609 | 29 ft | 33 kts | 324° |
| 2026-04-25 08:36 | 37.45634 | 126.42464 | 29 ft | 30 kts | 343° |
| 2026-04-25 08:36 | 37.45792 | 126.42436 | 29 ft | 5 kts | 355° |
| 2026-04-25 08:37 | 37.45835 | 126.42431 | 29 ft | 6 kts | 355° |
| 2026-04-25 08:37 | 37.45885 | 126.42425 | 29 ft | 7 kts | 354° |
| 2026-04-25 08:37 | 37.45945 | 126.42413 | 29 ft | 10 kts | 346° |
| 2026-04-25 08:37 | 37.46017 | 126.42377 | 29 ft | 11 kts | 345° |
| 2026-04-25 08:38 | 37.46085 | 126.42421 | 29 ft | 12 kts | 53° |
| 2026-04-25 08:38 | 37.46136 | 126.42509 | 29 ft | 12 kts | 55° |
| 2026-04-25 08:38 | 37.46190 | 126.42605 | 29 ft | 13 kts | 55° |
| 2026-04-25 08:38 | 37.46224 | 126.42664 | 29 ft | 0 kts | 53° |
| 2026-04-25 08:39 | 37.46224 | 126.42665 | 29 ft | 0 kts | 53° |
| 2026-04-25 08:39 | 37.46251 | 126.42688 | 29 ft | 8 kts | 17° |
| 2026-04-25 08:39 | 37.46310 | 126.42718 | 29 ft | 9 kts | 45° |
| 2026-04-25 08:40 | 37.46352 | 126.42789 | 29 ft | 10 kts | 55° |
| 2026-04-25 08:40 | 37.46396 | 126.42868 | 29 ft | 11 kts | 55° |
| 2026-04-25 08:40 | 37.46439 | 126.42944 | 29 ft | 9 kts | 55° |
| 2026-04-25 08:40 | 37.46466 | 126.42999 | 29 ft | 7 kts | 60° |
| 2026-04-25 08:41 | 37.46480 | 126.43046 | 29 ft | 4 kts | 78° |
| 2026-04-25 08:41 | 37.46485 | 126.43081 | 29 ft | 3 kts | 81° |
| 2026-04-25 08:41 | 37.46487 | 126.43102 | 29 ft | 0 kts | 81° |